Weather History for KOGA - October, 2012

Change the Weather History Date:

Monday, October 15, 2012

  Actual Average Record
Temperature  
Mean Temperature 58 °F -  
Max Temperature 82 °F 64 °F 89 °F (1962)
Min Temperature 35 °F 34 °F 19 °F (1974)
Degree Days  
Heating Degree Days 7    
Growing Degree Days 8 (Base 50)    
Moisture  
Dew Point 32 °F    
Average Humidity 49    
Maximum Humidity 87    
Minimum Humidity 13    
Precipitation  
Precipitation 0.00 in - - ()
Sea Level Pressure  
Sea Level Pressure 29.91 in    
Wind  
Wind Speed 5 mph (WSW)    
Max Wind Speed 13 mph    
Max Gust Speed 21 mph    
Visibility 10 miles    
Events      
Averages and records for this station are not official NWS values.
T = Trace of Precipitation, MM = Missing Value Source: NWS Daily Summary

Daily Weather History Graph

Daily Weather History Graph

Search for Another Location

Airport or City:

Trip Planner

Search our weather history database for the weather conditions in past years. The results will help you decide how hot, cold, wet, or windy it might be!

Date:

Astronomy

Oct. 15, 2012 Rise Set
Actual Time 6:59 AM MDT 6:05 PM MDT
Civil Twilight 6:31 AM MDT 6:33 PM MDT
Nautical Twilight 5:59 AM MDT 7:05 PM MDT
Astronomical Twilight 5:27 AM MDT 7:37 PM MDT
Moon 7:12 AM MDT (10/15) 6:05 PM MDT (10/15)
Length of Visible Light 12h 01m
Length of Day
11h 06m
New Moon, 0% of the Moon is Illuminated
Oct 15
New Moon
Oct 21
First Quarter
Oct 29
Full
Nov 6
Last Quarter
Nov 13
New

Hourly Weather History & Observations

Time (MDT) Temp. Windchill Dew Point Humidity Pressure Visibility Wind Dir Wind Speed Gust Speed Precip Events Conditions
12:15 AM 40.8 °F - 32.7 °F 73% 30.07 in 10.0 mi Calm Calm - N/A   Clear
12:35 AM 40.5 °F - 32.5 °F 73% 30.07 in 10.0 mi Calm Calm - N/A   Clear
12:55 AM 40.5 °F - 32.5 °F 73% 30.07 in 10.0 mi Calm Calm - N/A   Clear
1:15 AM 37.9 °F - 31.5 °F 77% 30.07 in 10.0 mi Calm Calm - N/A   Clear
1:35 AM 39.0 °F - 32.5 °F 78% 30.06 in 10.0 mi Calm Calm - N/A   Clear
1:55 AM 38.7 °F 35.2 °F 32.4 °F 78% 30.06 in 10.0 mi West 4.6 mph - N/A   Clear
2:15 AM 36.5 °F 31.0 °F 31.8 °F 83% 30.05 in 10.0 mi WSW 6.9 mph - N/A   Clear
2:35 AM 35.6 °F 29.2 °F 31.6 °F 85% 30.04 in 10.0 mi WSW 8.1 mph - N/A   Clear
2:55 AM 36.1 °F 29.9 °F 32.0 °F 85% 30.04 in 10.0 mi West 8.1 mph - N/A   Clear
3:15 AM 37.6 °F 31.0 °F 32.9 °F 83% 30.04 in 10.0 mi West 9.2 mph - N/A   Clear
3:55 AM 39.2 °F - 33.3 °F 79% 30.02 in 10.0 mi Calm Calm - N/A   Clear
4:15 AM 37.9 °F 34.4 °F 32.7 °F 81% 30.02 in 10.0 mi WSW 4.6 mph - N/A   Clear
4:55 AM 37.9 °F 34.4 °F 33.4 °F 84% 30.01 in 10.0 mi SW 4.6 mph - N/A   Clear
5:15 AM 39.2 °F 37.0 °F 34.7 °F 84% 30.01 in 10.0 mi WSW 3.5 mph - N/A   Clear
5:35 AM 39.6 °F 37.4 °F 34.5 °F 82% 30.00 in 10.0 mi West 3.5 mph - N/A   Clear
5:55 AM 38.8 °F 35.4 °F 34.2 °F 83% 30.00 in 10.0 mi SW 4.6 mph - N/A   Clear
6:15 AM 38.5 °F 35.0 °F 34.5 °F 86% 30.00 in 10.0 mi West 4.6 mph - N/A   Clear
6:35 AM 37.4 °F 33.8 °F 33.4 °F 86% 30.00 in 10.0 mi WSW 4.6 mph - N/A   Clear
6:55 AM 37.9 °F 33.5 °F 33.8 °F 85% 30.00 in 10.0 mi WSW 5.8 mph - N/A   Clear
7:15 AM 37.2 °F 32.6 °F 33.6 °F 87% 30.00 in 10.0 mi WSW 5.8 mph - N/A   Clear
7:35 AM 38.5 °F 34.1 °F 34.5 °F 86% 30.00 in 10.0 mi WSW 5.8 mph - N/A   Clear
7:55 AM 40.5 °F 37.3 °F 35.4 °F 82% 30.00 in 10.0 mi WSW 4.6 mph - N/A   Clear
8:15 AM 43.2 °F 40.5 °F 37.0 °F 79% 30.00 in 10.0 mi WSW 4.6 mph - N/A   Clear
8:35 AM 46.6 °F - 38.3 °F 73% 30.00 in 10.0 mi WSW 3.5 mph - N/A   Clear
8:55 AM 48.6 °F - 38.7 °F 69% 30.00 in 10.0 mi Calm Calm - N/A   Clear
9:15 AM 51.1 °F - 39.2 °F 64% 29.99 in 10.0 mi WSW 5.8 mph - N/A   Clear
9:35 AM 54.3 °F - 39.0 °F 56% 29.99 in 10.0 mi WSW 8.1 mph - N/A   Clear
9:55 AM 57.4 °F - 39.6 °F 51% 29.98 in 10.0 mi West 6.9 mph - N/A   Clear
10:15 AM 59.2 °F - 39.9 °F 49% 29.98 in 10.0 mi West 4.6 mph - N/A   Clear
10:35 AM 62.8 °F - 39.7 °F 43% 29.96 in 10.0 mi WSW 6.9 mph - N/A   Clear
10:55 AM 66.6 °F - 38.8 °F 36% 29.95 in 10.0 mi SW 6.9 mph - N/A   Clear
11:15 AM 69.1 °F - 38.3 °F 32% 29.94 in 10.0 mi West 9.2 mph - N/A   Clear
11:35 AM 71.6 °F - 37.8 °F 29% 29.94 in 10.0 mi WSW 11.5 mph - N/A   Clear
11:55 AM 72.5 °F - 36.1 °F 27% 29.93 in 10.0 mi WSW 9.2 mph 17.3 mph N/A   Clear
12:15 PM 74.1 °F - 35.1 °F 24% 29.92 in 10.0 mi West 12.7 mph 16.1 mph N/A   Clear
12:35 PM 76.3 °F - 35.8 °F 23% 29.91 in 10.0 mi WSW 10.4 mph - N/A   Clear
12:55 PM 78.1 °F - 35.2 °F 21% 29.89 in 10.0 mi West 8.1 mph - N/A   Clear
1:15 PM 80.4 °F - 29.1 °F 15% 29.88 in 10.0 mi West 10.4 mph - N/A   Clear
1:35 PM 81.3 °F - 27.3 °F 14% 29.86 in 10.0 mi West 12.7 mph 18.4 mph N/A   Clear
1:55 PM 81.3 °F - 27.1 °F 14% 29.86 in 10.0 mi West 12.7 mph 20.7 mph N/A   Clear
2:15 PM 81.3 °F - 27.9 °F 14% 29.84 in 10.0 mi West 12.7 mph 20.7 mph N/A   Clear
2:35 PM 81.7 °F - 26.8 °F 13% 29.84 in 10.0 mi WSW 10.4 mph 17.3 mph N/A   Clear
2:55 PM 81.9 °F - 27.1 °F 14% 29.83 in 10.0 mi West 10.4 mph 18.4 mph N/A   Clear
3:15 PM 81.5 °F - 27.5 °F 14% 29.82 in 10.0 mi West 6.9 mph - N/A   Clear
3:35 PM 81.9 °F - 27.7 °F 14% 29.81 in 10.0 mi WSW 11.5 mph 18.4 mph N/A   Clear
3:55 PM 81.9 °F - 27.0 °F 13% 29.81 in 10.0 mi West 10.4 mph 17.3 mph N/A   Clear
4:15 PM 81.5 °F - 26.6 °F 13% 29.79 in 10.0 mi WSW 11.5 mph 17.3 mph N/A   Clear
4:35 PM 81.5 °F - 27.1 °F 14% 29.79 in 10.0 mi WSW 10.4 mph - N/A   Clear
4:55 PM 80.6 °F - 27.1 °F 14% 29.78 in 10.0 mi WSW 9.2 mph - N/A   Clear
5:15 PM 79.9 °F - 27.0 °F 14% 29.78 in 10.0 mi SW 5.8 mph - N/A   Clear
5:35 PM 77.9 °F - 26.6 °F 15% 29.77 in 10.0 mi SW 5.8 mph - N/A   Clear
6:15 PM 66.7 °F - 28.9 °F 24% 29.77 in 10.0 mi West 3.5 mph - N/A   Clear
6:35 PM 64.2 °F - 28.2 °F 26% 29.78 in 10.0 mi WNW 3.5 mph - N/A   Clear
6:55 PM 61.9 °F - 28.4 °F 28% 29.78 in 10.0 mi West 4.6 mph - N/A   Clear
7:15 PM 58.3 °F - 29.3 °F 33% 29.79 in 10.0 mi WSW 4.6 mph - N/A   Clear
7:35 PM 56.8 °F - 28.9 °F 34% 29.79 in 10.0 mi WSW 3.5 mph - N/A   Clear
8:15 PM 54.5 °F - 30.2 °F 39% 29.79 in 10.0 mi WSW 4.6 mph - N/A   Clear
8:35 PM 56.3 °F - 29.5 °F 36% 29.79 in 10.0 mi WSW 3.5 mph - N/A   Clear
8:55 PM 55.8 °F - 29.1 °F 36% 29.79 in 10.0 mi Calm Calm - N/A   Clear
9:15 PM 55.9 °F - 29.8 °F 37% 29.79 in 10.0 mi WSW 5.8 mph - N/A   Clear
9:35 PM 52.9 °F - 31.1 °F 43% 29.79 in 10.0 mi WSW 4.6 mph - N/A   Clear
9:55 PM 52.0 °F - 31.1 °F 45% 29.79 in 10.0 mi West 5.8 mph - N/A   Clear
10:15 PM 52.5 °F - 31.6 °F 45% 29.79 in 10.0 mi West 9.2 mph - N/A   Clear
10:35 PM 51.4 °F - 32.0 °F 47% 29.78 in 10.0 mi West 8.1 mph - N/A   Clear
10:55 PM 52.0 °F - 31.1 °F 45% 29.78 in 10.0 mi WSW 8.1 mph - N/A   Clear
11:15 PM 49.5 °F - 31.8 °F 51% 29.77 in 10.0 mi SW 8.1 mph - N/A   Clear
11:35 PM 53.4 °F - 31.5 °F 43% 29.77 in 10.0 mi WSW 10.4 mph - N/A   Clear